createdAt,value
2022-11-04T00:03:52.331Z,9.86
2022-11-04T00:08:54.990Z,9.87
2022-11-04T00:13:57.602Z,9.86
2022-11-04T00:19:00.263Z,9.84
2022-11-04T00:24:02.934Z,9.81
2022-11-04T00:34:08.262Z,9.79
2022-11-04T00:39:10.921Z,9.79
2022-11-04T00:44:13.713Z,9.75
2022-11-04T00:49:16.546Z,9.71
2022-11-04T00:54:19.586Z,9.67
2022-11-04T00:59:22.056Z,9.62
2022-11-04T01:04:24.672Z,9.61
2022-11-04T01:09:36.354Z,9.59
2022-11-04T01:14:39.022Z,9.6
2022-11-04T01:19:41.608Z,9.56
2022-11-04T01:29:49.452Z,9.55
2022-11-04T01:39:54.722Z,9.58
2022-11-04T02:01:56.765Z,9.67
2022-11-04T02:06:59.136Z,9.68
2022-11-04T02:22:07.500Z,9.67
2022-11-04T02:27:10.157Z,9.67
2022-11-04T02:37:15.580Z,9.6
2022-11-04T02:42:18.193Z,9.56
2022-11-04T02:47:20.785Z,9.5
2022-11-04T02:57:28.847Z,9.49
2022-11-04T03:02:31.612Z,9.49
2022-11-04T03:07:34.285Z,9.49
2022-11-04T03:12:37.086Z,9.6
2022-11-04T03:17:39.668Z,9.63
2022-11-04T03:22:42.518Z,9.68
2022-11-04T03:27:45.194Z,9.73
2022-11-04T03:32:47.878Z,9.76
2022-11-04T03:37:50.767Z,9.88
2022-11-04T03:42:53.325Z,9.89
2022-11-04T03:47:56.258Z,9.88
2022-11-04T03:52:58.941Z,9.89
2022-11-04T04:03:04.096Z,9.9
2022-11-04T04:08:15.733Z,9.91
2022-11-04T04:13:18.521Z,9.96
2022-11-04T04:18:21.231Z,10.09
2022-11-04T04:23:23.776Z,10.1
2022-11-04T04:28:26.349Z,10.04
2022-11-04T04:33:29.105Z,10.09
2022-11-04T04:43:34.464Z,10.15
2022-11-04T04:48:37.080Z,10.26
2022-11-04T04:53:39.642Z,10.34
2022-11-04T04:58:42.342Z,10.38
2022-11-04T05:03:45.364Z,10.2
2022-11-04T05:08:47.482Z,10.27
2022-11-04T05:13:53.141Z,10.34
2022-11-04T05:18:55.925Z,10.38
2022-11-04T05:23:58.704Z,10.37
2022-11-04T05:29:01.235Z,10.33
2022-11-04T05:39:06.507Z,10.4
2022-11-04T05:44:09.250Z,10.43
2022-11-04T05:49:11.920Z,10.41
2022-11-04T05:54:14.610Z,10.34
2022-11-04T05:59:17.383Z,10.29
2022-11-04T06:04:20.101Z,10.35
2022-11-04T06:09:22.704Z,10.31
2022-11-04T06:14:25.466Z,10.26
2022-11-04T06:19:28.078Z,10.25
2022-11-04T06:24:30.627Z,10.33
2022-11-04T06:29:33.253Z,10.32
2022-11-04T06:34:35.951Z,10.37
2022-11-04T06:44:41.504Z,10.5
2022-11-04T06:49:43.905Z,10.55
2022-11-04T06:55:26.382Z,10.59
2022-11-04T07:00:29.434Z,10.59
2022-11-04T07:05:32.025Z,10.57
2022-11-04T07:10:34.811Z,10.69
2022-11-04T07:15:38.043Z,10.66
2022-11-04T07:20:40.866Z,10.74
2022-11-04T07:25:43.385Z,10.75
2022-11-04T07:30:46.203Z,11.02
2022-11-04T07:35:51.157Z,11.14
2022-11-04T07:40:52.032Z,11.3
2022-11-04T07:45:54.738Z,11.48
2022-11-04T07:50:57.304Z,11.7
2022-11-04T07:55:59.957Z,11.92
2022-11-04T08:01:02.604Z,12.05
2022-11-04T08:06:05.425Z,12.18
2022-11-04T08:11:10.454Z,12.01
2022-11-04T08:21:16.064Z,12.41
2022-11-04T08:26:18.529Z,12.23
2022-11-04T08:31:21.114Z,12.23
2022-11-04T08:36:23.761Z,12.2
2022-11-04T08:41:26.290Z,12.18
2022-11-04T08:46:29.089Z,12.09
2022-11-04T08:51:31.777Z,12.25
2022-11-04T08:56:34.502Z,12.19
2022-11-04T09:01:37.245Z,12.15
2022-11-04T09:06:39.674Z,12.09
2022-11-04T09:11:42.802Z,12.14
2022-11-04T09:16:45.300Z,12.26
2022-11-04T09:21:48.217Z,12.32
2022-11-04T09:26:50.811Z,12.32
2022-11-04T09:31:53.527Z,12.3
2022-11-04T09:36:56.278Z,12.42
2022-11-04T09:41:58.829Z,12.46
2022-11-04T09:47:01.274Z,12.47
2022-11-04T09:52:04.370Z,12.53
2022-11-04T09:57:07.060Z,12.5
2022-11-04T10:02:09.526Z,12.55
2022-11-04T10:07:12.084Z,12.44
2022-11-04T10:12:14.704Z,12.4
2022-11-04T10:17:17.391Z,12.39
2022-11-04T10:22:20.597Z,12.35
2022-11-04T10:27:22.980Z,12.32
2022-11-04T10:32:25.676Z,12.34
2022-11-04T10:37:28.504Z,12.36
2022-11-04T10:42:30.900Z,12.37
2022-11-04T10:47:33.357Z,12.43
2022-11-04T10:52:36.077Z,12.32
2022-11-04T10:57:38.544Z,12.25
2022-11-04T11:07:44.095Z,12.12
2022-11-04T11:12:51.301Z,12.18
2022-11-04T11:17:49.515Z,12.25
2022-11-04T11:22:52.408Z,12.15
2022-11-04T11:27:54.873Z,12.19
2022-11-04T11:32:57.647Z,12.25
2022-11-04T11:38:00.223Z,12.15
2022-11-04T11:48:05.489Z,12.19
2022-11-04T11:53:08.435Z,12.23
2022-11-04T12:13:40.090Z,12.44
2022-11-04T12:18:43.209Z,12.51
2022-11-04T12:23:46.003Z,12.35
2022-11-04T12:28:48.752Z,12.31
2022-11-04T12:33:51.436Z,12.18
2022-11-04T12:38:54.108Z,12.21
2022-11-04T12:49:03.085Z,12.21
2022-11-04T12:54:05.891Z,11.98
2022-11-04T12:59:08.425Z,11.96
2022-11-04T13:04:11.053Z,11.88
2022-11-04T13:09:13.682Z,11.92
2022-11-04T13:14:16.160Z,11.89
2022-11-04T13:19:18.555Z,11.87
2022-11-04T13:24:24.043Z,11.8
2022-11-04T13:29:26.547Z,11.83
2022-11-04T13:34:29.173Z,11.7
2022-11-04T13:39:32.016Z,11.73
2022-11-04T13:44:34.757Z,11.73
2022-11-04T13:49:37.444Z,11.7
2022-11-04T13:54:39.966Z,11.65
2022-11-04T13:59:42.555Z,11.67
2022-11-04T14:04:44.948Z,11.82
2022-11-04T14:14:50.579Z,12.27
2022-11-04T14:19:53.322Z,12.39
2022-11-04T14:24:55.976Z,12.38
2022-11-04T14:29:58.598Z,12.38
2022-11-04T14:35:01.372Z,12.24
2022-11-04T14:40:03.933Z,12.2
2022-11-04T14:45:06.689Z,11.99
2022-11-04T14:50:09.400Z,11.88
2022-11-04T14:55:11.820Z,11.72
2022-11-04T15:05:17.637Z,11.68
2022-11-04T15:10:20.193Z,11.64
2022-11-04T15:15:22.783Z,11.62
2022-11-04T15:25:28.711Z,11.54
2022-11-04T15:30:31.324Z,11.49
2022-11-04T15:35:33.936Z,11.44
2022-11-04T15:40:39.777Z,11.41
2022-11-04T15:45:42.491Z,11.36
2022-11-04T15:55:48.076Z,11.35
2022-11-04T16:00:50.779Z,11.31
2022-11-04T16:10:56.009Z,11.24
2022-11-04T16:21:01.546Z,11.22
2022-11-04T16:26:04.098Z,11.25
2022-11-04T16:36:09.701Z,11.18
2022-11-04T16:41:12.693Z,11.15
2022-11-04T16:46:15.570Z,11.12
2022-11-04T16:51:18.538Z,11.16
2022-11-04T16:56:21.219Z,11.15
2022-11-04T17:01:23.924Z,11.13
2022-11-04T17:06:26.623Z,11.12
2022-11-04T17:11:29.204Z,11.1
2022-11-04T17:21:34.323Z,11.08
2022-11-04T17:26:37.037Z,11.09
2022-11-04T17:31:39.675Z,11.03
2022-11-04T17:36:45.734Z,10.99
2022-11-04T17:41:48.422Z,10.98
2022-11-04T17:46:51.220Z,10.96
2022-11-04T17:51:54.010Z,10.98
2022-11-04T17:56:56.820Z,10.99
2022-11-04T18:01:59.448Z,10.95
2022-11-04T18:07:03.186Z,10.95
2022-11-04T18:12:07.310Z,10.91
2022-11-04T18:17:10.198Z,10.86
2022-11-04T18:27:15.881Z,10.88
2022-11-04T18:32:18.458Z,10.91
2022-11-04T18:37:21.112Z,10.93
2022-11-04T18:42:23.929Z,10.95
2022-11-04T18:52:29.349Z,10.91
2022-11-04T19:02:35.144Z,10.88
2022-11-04T19:07:37.676Z,10.87
2022-11-04T19:12:40.476Z,10.88
2022-11-04T19:17:43.241Z,10.88
2022-11-04T19:22:48.295Z,10.86
2022-11-04T19:28:05.449Z,10.86
2022-11-04T19:37:56.407Z,10.88
2022-11-04T19:42:59.213Z,10.85
2022-11-04T19:48:04.881Z,10.81
2022-11-04T19:53:07.759Z,10.86
2022-11-04T19:58:10.641Z,10.9
2022-11-04T20:03:12.985Z,10.87
2022-11-04T20:13:18.277Z,10.89
2022-11-04T20:18:24.334Z,10.87
2022-11-04T20:23:26.975Z,10.93
2022-11-04T20:28:29.675Z,10.92
2022-11-04T20:33:32.125Z,10.94
2022-11-04T20:43:37.461Z,10.91
2022-11-04T20:48:46.111Z,10.94
2022-11-04T20:53:43.025Z,10.96
2022-11-04T20:58:47.848Z,10.94
2022-11-04T21:03:47.899Z,10.96
2022-11-04T21:08:50.710Z,10.99
2022-11-04T21:13:55.893Z,10.92
2022-11-04T21:19:01.045Z,10.86
2022-11-04T21:30:02.351Z,10.92
2022-11-04T21:35:05.084Z,10.9
2022-11-04T21:45:10.237Z,10.78
2022-11-04T21:50:17.786Z,10.76
2022-11-04T21:55:15.622Z,10.76
2022-11-04T22:05:21.274Z,10.75
2022-11-04T22:10:30.721Z,10.78
2022-11-04T22:15:33.776Z,10.75
2022-11-04T22:20:36.521Z,10.75
2022-11-04T22:25:39.151Z,10.75
2022-11-04T22:30:41.753Z,10.65
2022-11-04T22:35:44.564Z,10.57
2022-11-04T22:45:49.936Z,10.64
2022-11-04T22:50:52.545Z,10.61
2022-11-04T23:00:57.498Z,10.51
2022-11-04T23:06:00.175Z,10.58
2022-11-04T23:11:02.734Z,10.57
2022-11-04T23:21:10.749Z,10.59
2022-11-04T23:26:13.454Z,10.64
2022-11-04T23:31:15.952Z,10.72
2022-11-04T23:36:18.814Z,10.65
2022-11-04T23:41:24.385Z,10.58
2022-11-04T23:52:25.289Z,10.59
2022-11-04T23:57:27.766Z,10.53
